Time;durP1;ratioP1;P1;durP2;ratioP2;P2;SDS_P1;SDS_P2;PMS_P1;PMS_P2;Temp;Humidity;BMP_temperature;BMP_pressure;BME280_temperature;BME280_humidity;BME280_pressure;Samples;Min_cycle;Max_cycle;Signal;HPM_P1;HPM_P2
2023/12/13 00:01:27;;;;;;;6.03;2.13;;;8.90;99.90;;;;;;5007339;28;20105;-71
2023/12/13 00:03:53;;;;;;;4.65;1.58;;;8.80;99.90;;;;;;5011335;28;20127;-72
2023/12/13 00:06:19;;;;;;;6.07;2.22;;;8.90;99.90;;;;;;5010535;28;20494;-72
2023/12/13 00:08:45;;;;;;;8.20;1.95;;;8.80;99.90;;;;;;5009456;28;20036;-72
2023/12/13 00:11:11;;;;;;;6.82;2.00;;;8.80;99.90;;;;;;5009104;28;20113;-72
2023/12/13 00:13:37;;;;;;;5.93;1.95;;;8.80;99.90;;;;;;5011840;28;20080;-72
2023/12/13 00:16:03;;;;;;;4.95;1.95;;;8.80;99.90;;;;;;4999744;28;20040;-72
2023/12/13 00:18:29;;;;;;;7.63;2.03;;;8.80;99.90;;;;;;4998293;28;20390;-72
2023/12/13 00:20:54;;;;;;;7.45;2.45;;;8.90;99.90;;;;;;5017798;28;20022;-72
2023/12/13 00:23:20;;;;;;;7.38;3.17;;;8.80;99.90;;;;;;5015877;28;20088;-72
2023/12/13 00:25:46;;;;;;;4.05;2.08;;;8.80;99.90;;;;;;5017534;28;20030;-72
2023/12/13 00:28:11;;;;;;;6.40;2.83;;;8.80;99.90;;;;;;5015878;28;20026;-72
2023/12/13 00:30:37;;;;;;;6.68;2.85;;;8.80;99.90;;;;;;5017150;28;20377;-72
2023/12/13 00:33:03;;;;;;;8.55;2.47;;;8.90;99.90;;;;;;5016201;28;20057;-72
2023/12/13 00:35:28;;;;;;;9.48;3.10;;;8.80;99.90;;;;;;5017716;28;20030;-72
2023/12/13 00:37:54;;;;;;;6.13;2.20;;;8.80;99.90;;;;;;5016455;28;20065;-72
2023/12/13 00:40:22;;;;;;;6.70;2.50;;;8.80;99.90;;;;;;5016729;28;20030;-72
2023/12/13 00:42:48;;;;;;;7.50;2.17;;;8.70;99.90;;;;;;5016850;28;20045;-72
2023/12/13 00:45:14;;;;;;;5.03;1.77;;;8.70;99.90;;;;;;5017173;28;20137;-72
2023/12/13 00:47:40;;;;;;;6.13;1.85;;;8.60;99.90;;;;;;5017524;28;20030;-72
2023/12/13 00:50:07;;;;;;;6.25;1.67;;;8.60;99.90;;;;;;5016088;28;20030;-72
2023/12/13 00:52:33;;;;;;;6.65;1.70;;;8.50;99.90;;;;;;5015956;28;20030;-72
2023/12/13 00:55:00;;;;;;;9.35;1.75;;;8.50;99.90;;;;;;5017473;28;20026;-72
2023/12/13 00:57:27;;;;;;;8.00;2.25;;;8.50;99.90;;;;;;5016721;28;20034;-72
2023/12/13 00:59:52;;;;;;;6.40;1.80;;;8.50;99.90;;;;;;5016323;28;20080;-72
2023/12/13 01:02:18;;;;;;;5.85;1.80;;;8.50;99.90;;;;;;5015336;28;20473;-72
2023/12/13 01:04:44;;;;;;;6.55;2.53;;;8.50;99.90;;;;;;5017439;28;20034;-72
2023/12/13 01:07:10;;;;;;;6.75;1.90;;;8.50;99.90;;;;;;5016099;28;20402;-72
2023/12/13 01:09:36;;;;;;;7.07;2.22;;;8.40;99.90;;;;;;5015847;28;20030;-72
2023/12/13 01:12:02;;;;;;;5.43;1.63;;;8.30;99.90;;;;;;5014585;28;20029;-72
2023/12/13 01:14:28;;;;;;;5.97;1.50;;;8.30;99.90;;;;;;5017330;28;20036;-72
2023/12/13 01:16:53;;;;;;;6.68;1.27;;;8.20;99.90;;;;;;5016547;28;20038;-72
2023/12/13 01:19:19;;;;;;;7.53;1.58;;;8.20;99.90;;;;;;5016657;28;20049;-72
2023/12/13 01:21:45;;;;;;;6.07;1.40;;;8.20;99.90;;;;;;5014664;28;20040;-71
2023/12/13 01:24:10;;;;;;;5.38;1.65;;;8.10;99.90;;;;;;5016676;28;20109;-72
2023/12/13 01:26:36;;;;;;;5.28;1.33;;;8.10;99.90;;;;;;5013674;28;20026;-72
2023/12/13 01:29:02;;;;;;;8.05;1.48;;;8.10;99.90;;;;;;5013047;28;20026;-72
2023/12/13 01:31:27;;;;;;;7.28;1.83;;;8.20;99.90;;;;;;5011172;28;20044;-72
2023/12/13 01:33:53;;;;;;;4.20;1.30;;;8.10;99.90;;;;;;5014221;28;20038;-72
2023/12/13 01:36:18;;;;;;;6.38;1.60;;;8.20;99.90;;;;;;5011244;28;20036;-72
2023/12/13 01:38:44;;;;;;;4.85;1.25;;;8.20;99.90;;;;;;4993456;28;20029;-72
2023/12/13 01:41:10;;;;;;;4.15;1.38;;;8.20;99.90;;;;;;5012455;28;20064;-72
2023/12/13 01:43:35;;;;;;;6.05;1.40;;;8.20;99.90;;;;;;5013311;28;20026;-72
2023/12/13 01:46:01;;;;;;;3.65;1.60;;;8.20;99.90;;;;;;5012051;28;20505;-72
2023/12/13 01:48:27;;;;;;;4.78;1.50;;;8.20;99.90;;;;;;5013623;28;20030;-72
2023/12/13 01:50:55;;;;;;;7.00;1.80;;;8.20;99.90;;;;;;4993107;28;20033;-72
2023/12/13 01:53:24;;;;;;;6.38;1.42;;;8.10;99.90;;;;;;5013183;28;20034;-72
2023/12/13 01:55:50;;;;;;;7.80;1.48;;;8.20;99.90;;;;;;5012275;28;20091;-72
2023/12/13 01:58:16;;;;;;;6.90;1.48;;;8.10;99.90;;;;;;4991537;28;20493;-72
2023/12/13 02:00:42;;;;;;;11.20;1.95;;;8.10;99.90;;;;;;5008766;28;20041;-72
2023/12/13 02:03:11;;;;;;;5.80;1.63;;;8.20;99.90;;;;;;5011185;28;20032;-72
2023/12/13 02:05:38;;;;;;;4.80;1.25;;;8.20;99.90;;;;;;5002526;28;20545;-72
2023/12/13 02:08:04;;;;;;;4.95;1.10;;;8.20;99.90;;;;;;5012073;28;20045;-72
2023/12/13 02:10:30;;;;;;;3.65;1.17;;;8.20;99.90;;;;;;4993858;28;20026;-72
2023/12/13 02:12:55;;;;;;;6.25;1.33;;;8.20;99.90;;;;;;5012045;28;20025;-72
2023/12/13 02:15:22;;;;;;;9.48;1.70;;;8.30;99.90;;;;;;5012189;28;20037;-72
2023/12/13 02:17:52;;;;;;;4.43;1.17;;;8.30;99.90;;;;;;5011581;28;20030;-72
2023/12/13 02:20:19;;;;;;;2.90;0.90;;;8.40;99.90;;;;;;5010682;28;20030;-72
2023/12/13 02:22:44;;;;;;;4.13;0.70;;;8.40;99.90;;;;;;5009586;28;20109;-72
2023/12/13 02:25:22;;;;;;;5.43;1.00;;;8.40;99.90;;;;;;5012137;28;20097;-72
2023/12/13 02:27:48;;;;;;;3.90;0.88;;;8.50;99.90;;;;;;5012989;28;20034;-72
2023/12/13 02:30:14;;;;;;;5.88;0.90;;;8.40;99.90;;;;;;5011193;28;20045;-72
2023/12/13 02:32:40;;;;;;;7.38;1.13;;;8.40;99.90;;;;;;5010950;28;20503;-72
2023/12/13 02:35:06;;;;;;;4.05;0.77;;;8.40;99.90;;;;;;5012174;28;20049;-72
2023/12/13 02:37:31;;;;;;;3.40;1.10;;;8.50;99.90;;;;;;5012036;28;20073;-72
2023/12/13 02:39:58;;;;;;;3.78;0.93;;;8.40;99.90;;;;;;5011484;28;20068;-72
2023/12/13 02:42:25;;;;;;;5.70;1.42;;;8.50;99.90;;;;;;5010829;28;20033;-71
2023/12/13 02:44:51;;;;;;;4.28;1.40;;;8.50;99.90;;;;;;5012922;28;20029;-72
2023/12/13 02:47:16;;;;;;;5.07;1.88;;;8.50;99.90;;;;;;5010730;28;20228;-72
2023/12/13 02:49:42;;;;;;;4.65;1.65;;;8.50;99.90;;;;;;5007696;28;20037;-72
2023/12/13 02:52:07;;;;;;;10.05;1.83;;;8.50;99.90;;;;;;5009247;28;20023;-72
2023/12/13 02:54:33;;;;;;;7.63;1.90;;;8.50;99.90;;;;;;5012117;28;20026;-72
2023/12/13 02:56:58;;;;;;;4.05;2.13;;;8.50;99.90;;;;;;5011843;28;20114;-72
2023/12/13 02:59:24;;;;;;;5.70;2.50;;;8.50;99.90;;;;;;5011530;28;20026;-72
2023/12/13 03:01:49;;;;;;;8.43;2.90;;;8.60;99.90;;;;;;5004230;28;20142;-72
2023/12/13 03:04:15;;;;;;;10.30;3.67;;;8.50;99.90;;;;;;5004360;28;20034;-72
2023/12/13 03:06:41;;;;;;;6.38;2.92;;;8.50;99.90;;;;;;5004090;28;20136;-72
2023/12/13 03:09:06;;;;;;;7.28;3.38;;;8.50;99.90;;;;;;5008493;28;20022;-72
2023/12/13 03:11:32;;;;;;;7.57;3.35;;;8.50;99.90;;;;;;5011109;28;20204;-71
2023/12/13 03:13:57;;;;;;;8.85;4.13;;;8.50;99.90;;;;;;5009367;28;20074;-72
2023/12/13 03:16:24;;;;;;;8.35;3.92;;;8.50;99.90;;;;;;5010498;28;20037;-72
2023/12/13 03:18:50;;;;;;;10.73;4.78;;;8.50;99.90;;;;;;5006854;28;20486;-72
2023/12/13 03:21:16;;;;;;;6.53;3.83;;;8.50;99.90;;;;;;5006095;28;20103;-72
2023/12/13 03:23:41;;;;;;;11.75;4.18;;;8.50;99.90;;;;;;4999048;28;20034;-72
2023/12/13 03:26:07;;;;;;;13.27;4.30;;;8.50;99.90;;;;;;5011759;28;20054;-72
2023/12/13 03:28:32;;;;;;;6.80;3.55;;;8.50;99.90;;;;;;5009086;28;20036;-72
2023/12/13 03:30:58;;;;;;;12.45;4.63;;;8.50;99.90;;;;;;5008428;28;20092;-72
2023/12/13 03:33:23;;;;;;;10.40;5.05;;;8.50;99.90;;;;;;5011473;28;20026;-72
2023/12/13 03:35:49;;;;;;;11.02;4.13;;;8.50;99.90;;;;;;5011070;28;20045;-72
2023/12/13 03:38:15;;;;;;;17.35;4.68;;;8.50;99.90;;;;;;5009721;28;20033;-72
2023/12/13 03:40:40;;;;;;;11.60;4.82;;;8.50;99.90;;;;;;5010665;28;20076;-72
2023/12/13 03:43:06;;;;;;;11.23;4.68;;;8.50;99.90;;;;;;5009465;28;20029;-72
2023/12/13 03:45:31;;;;;;;13.65;5.65;;;8.50;99.90;;;;;;5011204;28;20048;-72
2023/12/13 03:47:57;;;;;;;9.70;4.55;;;8.50;99.90;;;;;;5000343;28;20026;-72
2023/12/13 03:50:23;;;;;;;12.00;4.90;;;8.50;99.90;;;;;;5008092;28;20025;-72
2023/12/13 03:52:48;;;;;;;11.82;5.20;;;8.60;99.90;;;;;;4998975;28;20034;-72
2023/12/13 03:55:14;;;;;;;8.40;4.38;;;8.50;99.90;;;;;;5008057;28;20033;-72
2023/12/13 03:57:40;;;;;;;12.00;4.93;;;8.50;99.90;;;;;;5007205;28;20030;-72
2023/12/13 04:00:06;;;;;;;14.50;4.88;;;8.50;99.90;;;;;;5009139;28;20401;-72
2023/12/13 04:02:32;;;;;;;10.35;5.10;;;8.40;99.90;;;;;;5004752;28;20034;-72
2023/12/13 04:04:58;;;;;;;11.30;5.20;;;8.40;99.90;;;;;;5005413;28;20029;-72
2023/12/13 04:07:23;;;;;;;14.60;5.10;;;8.40;99.90;;;;;;5006615;28;20045;-72
2023/12/13 04:09:49;;;;;;;13.48;5.00;;;8.40;99.90;;;;;;5007580;28;20037;-72
2023/12/13 04:12:16;;;;;;;10.18;4.38;;;8.40;99.90;;;;;;5000166;28;20098;-72
2023/12/13 04:14:41;;;;;;;15.45;4.55;;;8.40;99.90;;;;;;5008716;28;20034;-72
2023/12/13 04:17:07;;;;;;;10.75;5.07;;;8.40;99.90;;;;;;5010526;28;20068;-72
2023/12/13 04:19:33;;;;;;;13.30;5.43;;;8.40;99.90;;;;;;5008621;28;20062;-72
2023/12/13 04:21:59;;;;;;;9.70;4.38;;;8.40;99.90;;;;;;5002143;28;20613;-72
2023/12/13 04:24:24;;;;;;;14.05;5.47;;;8.40;99.90;;;;;;5017527;28;20030;-72
2023/12/13 04:26:50;;;;;;;8.48;3.78;;;8.50;99.90;;;;;;5011023;28;20097;-73
2023/12/13 04:29:16;;;;;;;12.35;4.30;;;8.50;99.90;;;;;;4992812;28;20113;-72
2023/12/13 04:31:41;;;;;;;14.50;4.53;;;8.40;99.90;;;;;;4996482;28;20030;-72
2023/12/13 04:34:07;;;;;;;18.77;5.68;;;8.40;99.90;;;;;;4984542;28;20036;-72
2023/12/13 04:36:33;;;;;;;12.45;4.43;;;8.40;99.90;;;;;;5009015;28;20102;-72
2023/12/13 04:38:59;;;;;;;12.27;4.90;;;8.50;99.90;;;;;;5009875;28;20080;-72
2023/12/13 04:41:25;;;;;;;13.57;4.43;;;8.40;99.90;;;;;;5007101;28;20037;-72
2023/12/13 04:43:51;;;;;;;17.65;4.72;;;8.50;99.90;;;;;;5009242;28;20034;-72
2023/12/13 04:46:17;;;;;;;14.20;4.90;;;8.50;99.90;;;;;;5005509;28;20116;-73
2023/12/13 04:48:43;;;;;;;12.48;4.20;;;8.50;99.90;;;;;;5010089;28;20409;-72
2023/12/13 04:51:08;;;;;;;12.55;5.20;;;8.50;99.90;;;;;;5004261;28;20117;-72
2023/12/13 04:53:34;;;;;;;15.75;4.25;;;8.50;99.90;;;;;;5009172;28;20470;-72
2023/12/13 04:56:00;;;;;;;11.15;4.82;;;8.50;99.90;;;;;;5010208;28;20120;-72
2023/12/13 04:58:27;;;;;;;10.40;3.95;;;8.50;99.90;;;;;;5011197;28;20132;-72
2023/12/13 05:00:52;;;;;;;18.95;4.65;;;8.50;99.90;;;;;;5004604;28;20032;-72
2023/12/13 05:03:18;;;;;;;18.73;4.65;;;8.50;99.90;;;;;;5011987;28;20510;-72
2023/12/13 05:05:44;;;;;;;12.90;3.67;;;8.50;99.90;;;;;;5012096;28;20165;-72
2023/12/13 05:08:12;;;;;;;15.18;4.07;;;8.40;99.90;;;;;;5010652;28;20084;-72
2023/12/13 05:10:43;;;;;;;12.82;4.40;;;8.50;99.90;;;;;;5013932;28;20026;-72
2023/12/13 05:13:09;;;;;;;13.73;4.78;;;8.40;99.90;;;;;;5011600;28;20036;-72
2023/12/13 05:15:34;;;;;;;13.77;4.43;;;8.40;99.90;;;;;;5011836;28;20023;-72
2023/12/13 05:18:00;;;;;;;13.38;4.53;;;8.40;99.90;;;;;;5011098;28;20047;-72
2023/12/13 05:20:26;;;;;;;12.02;3.88;;;8.40;99.90;;;;;;5011307;28;20033;-72
2023/12/13 05:22:51;;;;;;;11.32;5.10;;;8.40;99.90;;;;;;5013252;28;20033;-72
2023/12/13 05:25:17;;;;;;;16.17;4.55;;;8.40;99.90;;;;;;5012851;28;20539;-72
2023/12/13 05:27:44;;;;;;;12.05;4.47;;;8.40;99.90;;;;;;5009692;28;20041;-72
2023/12/13 05:30:10;;;;;;;20.63;5.05;;;8.40;99.90;;;;;;5011548;28;20030;-72
2023/12/13 05:32:36;;;;;;;12.27;5.07;;;8.40;99.90;;;;;;5012200;28;20026;-72
2023/12/13 05:35:02;;;;;;;16.13;4.55;;;8.40;99.90;;;;;;5012029;28;20119;-72
2023/12/13 05:37:28;;;;;;;13.00;4.82;;;8.40;99.90;;;;;;5009835;28;20030;-73
2023/12/13 05:39:53;;;;;;;11.95;5.15;;;8.40;99.90;;;;;;5013763;28;20025;-72
2023/12/13 05:42:19;;;;;;;14.27;4.72;;;8.50;99.90;;;;;;5011826;28;20476;-72
2023/12/13 05:44:46;;;;;;;12.00;4.43;;;8.50;99.90;;;;;;5010962;28;20037;-72
2023/12/13 05:47:12;;;;;;;17.48;5.20;;;8.50;99.90;;;;;;5007570;28;20045;-72
2023/12/13 05:49:37;;;;;;;12.65;5.30;;;8.50;99.90;;;;;;5012360;28;20068;-73
2023/12/13 05:52:03;;;;;;;13.25;5.35;;;8.50;99.90;;;;;;5011974;28;20038;-73
2023/12/13 05:54:29;;;;;;;17.52;4.85;;;8.50;99.90;;;;;;5009292;28;20022;-72
2023/12/13 05:56:55;;;;;;;16.00;5.20;;;8.50;99.90;;;;;;5011945;28;20038;-72
2023/12/13 05:59:20;;;;;;;14.95;4.47;;;8.50;99.90;;;;;;5011631;28;20451;-73
2023/12/13 06:01:46;;;;;;;19.98;5.15;;;8.60;99.90;;;;;;5011394;28;20057;-73
2023/12/13 06:04:12;;;;;;;15.80;4.82;;;8.50;99.90;;;;;;5010186;28;20109;-72
2023/12/13 06:06:45;;;;;;;12.68;4.65;;;8.60;99.90;;;;;;5002218;28;20026;-73
2023/12/13 06:09:11;;;;;;;19.90;5.63;;;8.50;99.90;;;;;;5005946;28;20033;-72
2023/12/13 06:11:37;;;;;;;15.80;4.80;;;8.60;99.90;;;;;;5007312;28;20049;-72
2023/12/13 06:14:03;;;;;;;11.82;4.50;;;8.50;99.90;;;;;;5011219;28;20026;-72
2023/12/13 06:16:28;;;;;;;14.07;5.10;;;8.50;99.90;;;;;;5007012;28;20411;-73
2023/12/13 06:18:54;;;;;;;17.48;4.43;;;8.50;99.90;;;;;;5005699;28;20026;-72
2023/12/13 06:21:20;;;;;;;19.02;5.97;;;8.60;99.90;;;;;;5008186;28;20441;-72
2023/12/13 06:23:45;;;;;;;16.98;5.25;;;8.60;99.90;;;;;;5001336;28;20022;-73
2023/12/13 06:26:11;;;;;;;18.02;4.60;;;8.60;99.90;;;;;;5006917;28;20042;-73
2023/12/13 06:28:37;;;;;;;22.13;5.10;;;8.60;99.90;;;;;;5002607;28;20397;-73
2023/12/13 06:31:02;;;;;;;18.00;5.50;;;8.60;99.90;;;;;;5012202;28;20485;-73
2023/12/13 06:33:29;;;;;;;19.30;5.30;;;8.60;99.90;;;;;;5011078;28;20033;-72
2023/12/13 06:35:55;;;;;;;13.48;4.70;;;8.60;99.90;;;;;;5011200;28;20434;-72
2023/12/13 06:38:21;;;;;;;19.15;5.45;;;8.60;99.90;;;;;;5012426;28;20109;-73
2023/12/13 06:40:46;;;;;;;15.75;4.88;;;8.60;99.90;;;;;;5011718;28;20026;-73
2023/12/13 06:43:12;;;;;;;15.55;5.60;;;8.60;99.90;;;;;;5012811;28;20033;-72
2023/12/13 06:45:38;;;;;;;18.13;5.10;;;8.60;99.90;;;;;;5011560;28;20113;-72
2023/12/13 06:48:04;;;;;;;12.77;4.43;;;8.60;99.90;;;;;;5011953;28;20120;-72
2023/12/13 06:50:30;;;;;;;15.15;4.40;;;8.60;99.90;;;;;;5004897;28;20027;-72
2023/12/13 06:52:55;;;;;;;21.20;5.13;;;8.60;99.90;;;;;;5011587;28;20160;-72
2023/12/13 06:55:24;;;;;;;15.70;4.93;;;8.70;99.90;;;;;;5012256;28;20440;-72
2023/12/13 06:57:51;;;;;;;20.15;4.90;;;8.70;99.90;;;;;;5012747;28;20120;-72
2023/12/13 07:00:19;;;;;;;18.05;4.88;;;8.60;99.90;;;;;;5007004;28;20422;-72
2023/12/13 07:02:45;;;;;;;15.57;4.82;;;8.60;99.90;;;;;;5012284;28;20033;-72
2023/12/13 07:05:10;;;;;;;20.75;4.60;;;8.70;99.90;;;;;;5011425;28;20375;-72
2023/12/13 07:07:36;;;;;;;17.45;5.38;;;8.60;99.90;;;;;;5011833;28;20058;-72
2023/12/13 07:10:02;;;;;;;20.75;5.57;;;8.60;99.90;;;;;;5003481;28;20144;-72
2023/12/13 07:12:28;;;;;;;20.65;5.07;;;8.60;99.90;;;;;;5005234;28;20359;-72
2023/12/13 07:14:58;;;;;;;21.80;4.93;;;8.60;99.90;;;;;;5002932;28;20033;-72
2023/12/13 07:17:24;;;;;;;17.73;4.78;;;8.70;99.90;;;;;;5001935;28;20061;-73
2023/12/13 07:19:50;;;;;;;17.33;4.63;;;8.60;99.90;;;;;;5009286;28;20049;-72
2023/12/13 07:22:18;;;;;;;15.75;5.80;;;8.70;99.90;;;;;;4999352;28;20497;-72
2023/12/13 07:24:44;;;;;;;17.70;5.57;;;8.70;99.90;;;;;;5003500;28;20080;-72
2023/12/13 07:27:10;;;;;;;19.38;5.15;;;8.70;99.90;;;;;;5003993;28;20037;-73
2023/12/13 07:29:36;;;;;;;18.60;6.03;;;8.70;99.90;;;;;;5010435;28;20026;-73
2023/12/13 07:32:04;;;;;;;31.30;7.35;;;8.70;99.90;;;;;;4998772;28;20434;-72
2023/12/13 07:34:29;;;;;;;20.88;5.70;;;8.70;99.90;;;;;;5008414;28;20030;-72
2023/12/13 07:36:55;;;;;;;17.42;5.07;;;8.70;99.90;;;;;;5001954;28;20049;-72
2023/12/13 07:39:20;;;;;;;18.63;6.68;;;8.70;99.90;;;;;;5003671;28;20053;-73
2023/12/13 07:41:46;;;;;;;17.58;6.75;;;8.70;99.90;;;;;;5004963;28;20034;-72
2023/12/13 07:44:12;;;;;;;26.13;5.85;;;8.70;99.90;;;;;;5006721;28;20033;-72
2023/12/13 07:46:38;;;;;;;18.50;6.53;;;8.60;99.90;;;;;;5007251;28;20049;-72
2023/12/13 07:49:04;;;;;;;14.75;6.32;;;8.60;99.90;;;;;;5004819;28;20470;-72
2023/12/13 07:51:33;;;;;;;25.33;7.10;;;8.60;99.90;;;;;;5004499;28;20038;-72
2023/12/13 07:54:00;;;;;;;16.15;5.88;;;8.60;99.90;;;;;;5006789;28;20077;-72
2023/12/13 07:56:26;;;;;;;17.50;6.05;;;8.60;99.90;;;;;;5014211;28;20038;-73
2023/12/13 07:58:52;;;;;;;19.10;6.95;;;8.60;99.90;;;;;;5016557;28;20083;-72
2023/12/13 08:01:18;;;;;;;15.93;6.75;;;8.70;99.90;;;;;;5011810;28;20573;-72
2023/12/13 08:03:46;;;;;;;20.15;6.43;;;8.70;99.90;;;;;;5007829;28;20378;-72
2023/12/13 08:06:13;;;;;;;19.30;6.38;;;8.70;99.90;;;;;;5011383;28;20498;-73
2023/12/13 08:08:39;;;;;;;22.75;7.53;;;8.70;99.90;;;;;;5005626;28;20022;-73
2023/12/13 08:11:05;;;;;;;21.27;7.55;;;8.70;99.90;;;;;;5011664;28;20486;-72
2023/12/13 08:13:34;;;;;;;18.35;7.05;;;8.70;99.90;;;;;;5011823;28;20029;-73
2023/12/13 08:16:00;;;;;;;17.05;7.10;;;8.80;99.90;;;;;;5007923;28;20489;-72
2023/12/13 08:18:26;;;;;;;20.02;7.15;;;8.80;99.90;;;;;;5001661;28;20034;-73
2023/12/13 08:20:52;;;;;;;20.38;6.85;;;8.80;99.90;;;;;;5011626;28;20022;-72
2023/12/13 08:23:17;;;;;;;21.88;8.15;;;8.80;99.90;;;;;;5010271;28;20053;-73
2023/12/13 08:25:43;;;;;;;19.55;7.38;;;8.80;99.90;;;;;;4998400;28;20058;-73
2023/12/13 08:28:09;;;;;;;23.48;7.53;;;8.80;99.90;;;;;;4993415;28;20025;-72
2023/12/13 08:30:35;;;;;;;18.48;7.55;;;8.80;99.90;;;;;;5005721;28;20117;-73
2023/12/13 08:33:02;;;;;;;18.38;7.22;;;8.90;99.90;;;;;;5009345;28;20052;-72
2023/12/13 08:35:28;;;;;;;17.58;7.15;;;8.80;99.90;;;;;;5007254;28;20014;-73
2023/12/13 08:37:54;;;;;;;18.33;7.20;;;8.80;99.90;;;;;;5009977;28;20033;-73
2023/12/13 08:40:20;;;;;;;19.65;7.53;;;8.90;99.90;;;;;;5009939;28;20022;-73
2023/12/13 08:42:46;;;;;;;17.13;7.22;;;8.90;99.90;;;;;;5014743;28;20079;-72
2023/12/13 08:45:13;;;;;;;22.02;8.00;;;8.80;99.90;;;;;;5010851;28;20068;-73
2023/12/13 08:47:39;;;;;;;18.48;6.95;;;8.90;99.90;;;;;;5014252;28;20044;-72
2023/12/13 08:50:06;;;;;;;18.35;8.20;;;8.80;99.90;;;;;;5003878;28;20026;-71
2023/12/13 08:52:31;;;;;;;18.98;7.65;;;8.90;99.90;;;;;;5009372;28;20041;-71
2023/12/13 08:54:57;;;;;;;22.75;7.93;;;8.90;99.90;;;;;;5000496;28;20049;-71
2023/12/13 08:57:23;;;;;;;22.40;8.55;;;8.90;99.90;;;;;;4998706;28;20050;-73
2023/12/13 08:59:48;;;;;;;15.95;6.78;;;8.90;99.90;;;;;;4999140;28;20038;-73
2023/12/13 09:02:14;;;;;;;23.25;8.32;;;8.90;99.90;;;;;;5001096;28;20049;-73
2023/12/13 09:04:40;;;;;;;14.70;7.50;;;8.90;99.90;;;;;;4987808;28;20201;-72
2023/12/13 09:07:06;;;;;;;21.52;7.95;;;8.90;99.90;;;;;;5002182;28;20042;-72
2023/12/13 09:09:32;;;;;;;22.70;8.98;;;8.90;99.90;;;;;;5001430;28;20168;-73
2023/12/13 09:11:59;;;;;;;17.13;8.00;;;8.90;99.90;;;;;;4991629;28;20042;-72
2023/12/13 09:14:27;;;;;;;18.98;8.38;;;8.90;99.90;;;;;;5004682;28;20110;-73
2023/12/13 09:16:52;;;;;;;19.70;8.65;;;8.90;99.90;;;;;;5003228;28;20050;-72
2023/12/13 09:19:18;;;;;;;17.67;7.47;;;8.90;99.90;;;;;;5000179;28;20544;-72
2023/12/13 09:21:44;;;;;;;18.30;6.72;;;8.90;99.90;;;;;;5001297;28;20113;-72
2023/12/13 09:24:10;;;;;;;16.55;6.72;;;9.00;99.90;;;;;;5000168;28;20065;-72
2023/12/13 09:26:35;;;;;;;18.17;6.60;;;9.00;99.90;;;;;;4996692;28;20041;-73
2023/12/13 09:29:02;;;;;;;17.38;5.95;;;9.00;99.90;;;;;;5000060;28;20550;-72
2023/12/13 09:31:28;;;;;;;14.80;5.70;;;9.00;99.90;;;;;;4999175;28;20093;-73
2023/12/13 09:33:54;;;;;;;14.55;5.28;;;9.00;99.90;;;;;;4991881;28;20030;-73
2023/12/13 09:36:21;;;;;;;14.25;5.13;;;9.00;99.90;;;;;;4998987;28;20041;-72
2023/12/13 09:38:47;;;;;;;14.52;4.75;;;8.90;99.90;;;;;;5006003;28;20045;-72
2023/12/13 09:41:21;;;;;;;15.85;4.88;;;8.90;99.90;;;;;;5002050;28;20022;-73
2023/12/13 09:43:46;;;;;;;10.68;3.65;;;8.90;99.90;;;;;;4987475;28;20091;-73
2023/12/13 09:46:13;;;;;;;17.02;5.20;;;8.90;99.90;;;;;;5001229;28;20054;-74
2023/12/13 09:48:40;;;;;;;13.13;4.32;;;8.90;99.90;;;;;;5003127;28;20101;-74
2023/12/13 09:51:09;;;;;;;14.63;5.47;;;8.80;99.90;;;;;;4995460;28;20037;-73
2023/12/13 09:53:38;;;;;;;11.82;4.63;;;8.90;99.90;;;;;;5001390;28;20033;-73
2023/12/13 09:56:04;;;;;;;15.68;6.10;;;8.80;99.90;;;;;;4997735;28;20034;-72
2023/12/13 09:58:31;;;;;;;13.77;5.82;;;8.80;99.90;;;;;;4995968;28;20479;-73
2023/12/13 10:00:56;;;;;;;17.90;5.82;;;8.80;99.90;;;;;;4989620;28;20037;-73
2023/12/13 10:03:22;;;;;;;19.77;6.82;;;8.80;99.90;;;;;;4990598;28;20030;-73
2023/12/13 10:05:49;;;;;;;16.23;6.10;;;8.80;99.90;;;;;;5001572;28;20034;-73
2023/12/13 10:08:15;;;;;;;23.10;8.15;;;8.80;99.90;;;;;;4998980;28;20049;-72
2023/12/13 10:10:46;;;;;;;15.77;7.65;;;8.80;99.90;;;;;;4984797;28;20053;-73
2023/12/13 10:13:12;;;;;;;24.83;9.70;;;8.80;99.90;;;;;;5005766;28;20034;-73
2023/12/13 10:15:37;;;;;;;18.20;8.15;;;8.80;99.90;;;;;;5010958;28;20033;-73
2023/12/13 10:18:03;;;;;;;46.00;12.13;;;8.90;99.90;;;;;;5005487;28;20461;-73
2023/12/13 10:20:30;;;;;;;26.58;10.18;;;8.90;99.90;;;;;;4994181;28;20128;-73
2023/12/13 10:22:56;;;;;;;24.42;9.95;;;8.90;99.90;;;;;;5001623;28;20029;-71
2023/12/13 10:25:23;;;;;;;21.92;9.23;;;8.90;99.90;;;;;;4986718;28;20026;-72
2023/12/13 10:27:55;;;;;;;22.92;9.52;;;8.90;99.90;;;;;;4997638;28;22283;-71
2023/12/13 10:30:21;;;;;;;25.77;9.90;;;9.00;99.90;;;;;;4998934;28;20038;-71
2023/12/13 10:32:46;;;;;;;19.90;9.45;;;9.00;99.90;;;;;;4995458;28;20030;-71
2023/12/13 10:35:12;;;;;;;25.20;10.75;;;9.10;99.90;;;;;;4996810;28;20030;-71
2023/12/13 10:37:41;;;;;;;29.33;10.43;;;9.10;99.90;;;;;;4999515;28;20040;-72
2023/12/13 10:40:09;;;;;;;27.35;10.23;;;9.10;99.90;;;;;;4996964;28;20052;-72
2023/12/13 10:42:37;;;;;;;22.67;10.57;;;9.20;99.90;;;;;;5003069;28;20025;-72
2023/12/13 10:45:05;;;;;;;24.80;11.27;;;9.30;99.90;;;;;;4999106;28;20488;-72
2023/12/13 10:47:35;;;;;;;25.38;11.00;;;9.40;99.90;;;;;;4995726;28;20041;-72
2023/12/13 10:50:02;;;;;;;23.73;11.20;;;9.50;99.90;;;;;;4998784;28;20093;-72
2023/12/13 10:52:29;;;;;;;30.98;12.43;;;9.60;99.90;;;;;;4995966;28;20065;-72
2023/12/13 10:54:55;;;;;;;27.83;11.73;;;9.80;99.90;;;;;;4999917;28;20030;-72
2023/12/13 10:57:21;;;;;;;23.42;11.50;;;9.90;99.90;;;;;;4998956;28;20056;-72
2023/12/13 10:59:48;;;;;;;29.73;12.48;;;10.00;99.90;;;;;;4999519;28;20056;-72
2023/12/13 11:02:18;;;;;;;28.80;12.45;;;10.30;99.90;;;;;;4997287;28;20038;-72
2023/12/13 11:04:45;;;;;;;35.58;13.23;;;10.40;99.90;;;;;;4997437;28;20022;-72
2023/12/13 11:07:11;;;;;;;19.27;11.98;;;10.50;99.90;;;;;;5000361;28;20387;-72
2023/12/13 11:09:52;;;;;;;23.50;12.02;;;10.70;99.90;;;;;;5003092;28;20434;-72
2023/12/13 11:12:20;;;;;;;26.75;13.23;;;10.80;99.90;;;;;;5003006;28;20057;-72
2023/12/13 11:14:52;;;;;;;23.13;12.63;;;10.90;99.90;;;;;;4997625;28;20048;-72
2023/12/13 11:17:19;;;;;;;22.98;12.13;;;11.00;99.90;;;;;;4997682;28;20038;-72
2023/12/13 11:19:46;;;;;;;20.50;11.65;;;11.10;99.90;;;;;;4998829;28;20038;-72
2023/12/13 11:22:14;;;;;;;22.45;11.75;;;11.00;99.90;;;;;;4998538;28;20033;-72
2023/12/13 11:24:41;;;;;;;21.58;11.90;;;11.10;99.90;;;;;;4997920;28;20042;-72
2023/12/13 11:27:12;;;;;;;24.35;11.55;;;11.20;99.90;;;;;;4998636;28;20453;-72
2023/12/13 11:29:44;;;;;;;25.30;11.10;;;11.20;99.90;;;;;;4997364;28;20093;-73
2023/12/13 11:32:10;;;;;;;19.85;11.60;;;11.20;99.90;;;;;;4990089;28;20092;-72
2023/12/13 11:34:48;;;;;;;23.67;11.88;;;11.30;99.90;;;;;;4997346;28;20027;-73
2023/12/13 11:37:15;;;;;;;20.05;11.57;;;11.40;99.90;;;;;;4998453;28;20080;-73
2023/12/13 11:39:43;;;;;;;23.00;11.50;;;11.40;99.90;;;;;;4996910;28;20429;-72
2023/12/13 11:42:11;;;;;;;26.67;11.32;;;11.40;99.90;;;;;;4996794;28;20032;-72
2023/12/13 11:44:38;;;;;;;24.65;13.27;;;11.50;99.90;;;;;;4998414;28;20504;-72
2023/12/13 11:47:10;;;;;;;22.90;12.13;;;11.50;99.90;;;;;;4994330;28;20050;-72
2023/12/13 11:49:37;;;;;;;26.70;11.90;;;11.50;99.90;;;;;;4998774;28;20026;-72
2023/12/13 11:52:03;;;;;;;19.30;11.80;;;11.50;99.90;;;;;;4993725;28;20050;-72
2023/12/13 11:54:30;;;;;;;17.70;10.98;;;11.60;99.90;;;;;;4972005;28;20049;-72
2023/12/13 11:56:56;;;;;;;19.55;11.35;;;11.60;99.90;;;;;;4997865;28;20030;-72
2023/12/13 11:59:21;;;;;;;18.60;10.60;;;11.60;99.90;;;;;;4996183;28;20034;-72
2023/12/13 12:01:48;;;;;;;19.98;10.77;;;11.60;99.90;;;;;;4996803;28;20045;-72
2023/12/13 12:04:16;;;;;;;17.70;10.27;;;11.60;99.90;;;;;;5003703;28;20450;-72
2023/12/13 12:06:51;;;;;;;16.23;10.57;;;11.60;99.90;;;;;;4977072;28;20040;-72
2023/12/13 12:09:21;;;;;;;19.30;10.32;;;11.60;99.90;;;;;;5000661;28;20370;-72
2023/12/13 12:11:54;;;;;;;16.92;10.45;;;11.60;99.90;;;;;;5000958;28;20029;-72
2023/12/13 12:14:25;;;;;;;19.33;11.27;;;11.60;99.90;;;;;;4988446;28;20088;-72
2023/12/13 12:16:50;;;;;;;18.90;10.10;;;11.60;99.90;;;;;;5002988;28;20065;-72
2023/12/13 12:19:17;;;;;;;17.25;10.57;;;11.50;99.90;;;;;;5001138;28;20058;-72
2023/12/13 12:21:44;;;;;;;21.48;11.27;;;11.40;99.90;;;;;;5001522;28;20457;-72
2023/12/13 12:24:10;;;;;;;15.43;9.50;;;11.40;99.90;;;;;;5007384;28;20026;-72
2023/12/13 12:26:36;;;;;;;19.58;11.10;;;11.30;99.90;;;;;;5010805;28;20025;-72
2023/12/13 12:29:02;;;;;;;18.15;9.93;;;11.30;99.90;;;;;;5010857;28;20494;-72
2023/12/13 12:31:27;;;;;;;21.50;10.57;;;11.20;99.90;;;;;;4994774;28;20034;-72
2023/12/13 12:33:57;;;;;;;19.90;10.38;;;11.20;99.90;;;;;;5010847;28;20481;-72
2023/12/13 12:36:23;;;;;;;17.88;9.65;;;11.20;99.90;;;;;;4980383;28;20058;-72
2023/12/13 12:38:50;;;;;;;19.63;9.50;;;11.20;99.90;;;;;;5010853;28;20486;-72
2023/12/13 12:41:22;;;;;;;20.75;10.13;;;11.20;99.90;;;;;;4993558;28;20096;-72